Time;durP1;ratioP1;P1;durP2;ratioP2;P2;SDS_P1;SDS_P2;PMS_P1;PMS_P2;Temp;Humidity;BMP_temperature;BMP_pressure;BME280_temperature;BME280_humidity;BME280_pressure;Samples;Min_cycle;Max_cycle;Signal;HPM_P1;HPM_P2
2021/08/27 00:02:08;;;;;;;;;;;;;;;12.48;88.20;98985.28;5053858;28;20368;-76
2021/08/27 00:04:38;;;;;;;;;;;;;;;12.49;88.02;98982.72;5054575;28;20436;-76
2021/08/27 00:07:07;;;;;;;;;;;;;;;12.37;87.85;98977.84;5057698;28;19924;-76
2021/08/27 00:09:36;;;;;;;;;;;;;;;12.35;87.75;98988.97;5057549;28;19929;-76
2021/08/27 00:12:05;;;;;;;;;;;;;;;12.40;87.84;98987.16;5057394;28;19959;-76
2021/08/27 00:14:34;;;;;;;;;;;;;;;12.40;87.90;98989.72;5057426;28;19924;-76
2021/08/27 00:17:03;;;;;;;;;;;;;;;12.47;88.19;98984.47;5039717;28;19925;-76
2021/08/27 00:19:31;;;;;;;;;;;;;;;12.54;87.87;98982.63;5057232;28;19931;-76
2021/08/27 00:22:02;;;;;;;;;;;;;;;12.63;88.53;98979.88;5057352;28;20416;-75
2021/08/27 00:24:31;;;;;;;;;;;;;;;12.75;88.67;98989.84;5057465;28;20356;-73
2021/08/27 00:27:00;;;;;;;;;;;;;;;12.72;88.55;98989.91;5007256;28;19974;-74
2021/08/27 00:29:29;;;;;;;;;;;;;;;12.63;88.69;98995.22;5039397;28;19924;-74
2021/08/27 00:31:58;;;;;;;;;;;;;;;12.55;88.51;98997.09;5057128;28;19971;-74
2021/08/27 00:34:27;;;;;;;;;;;;;;;12.49;88.28;98987.81;5057096;28;19931;-74
2021/08/27 00:36:55;;;;;;;;;;;;;;;12.42;88.51;98985.41;5057065;28;19924;-74
2021/08/27 00:39:25;;;;;;;;;;;;;;;12.42;88.27;98995.66;5057085;28;19928;-74
2021/08/27 00:41:54;;;;;;;;;;;;;;;12.28;88.24;98987.41;5057046;28;20008;-74
2021/08/27 00:44:23;;;;;;;;;;;;;;;12.18;87.94;98991.00;5056926;28;19925;-74
2021/08/27 00:46:51;;;;;;;;;;;;;;;12.20;87.95;98990.09;5056915;28;20019;-74
2021/08/27 00:49:20;;;;;;;;;;;;;;;12.32;88.18;98986.44;5056872;28;19971;-74
2021/08/27 00:51:48;;;;;;;;;;;;;;;12.39;88.20;98990.59;5057080;28;19925;-74
2021/08/27 00:54:17;;;;;;;;;;;;;;;12.36;88.36;98986.38;5056685;28;20290;-74
2021/08/27 00:56:47;;;;;;;;;;;;;;;12.31;88.06;98984.78;5056717;28;20352;-74
2021/08/27 00:59:16;;;;;;;;;;;;;;;12.23;88.01;98984.06;5056721;28;19963;-74
2021/08/27 01:01:44;;;;;;;;;;;;;;;12.19;88.02;98987.56;5056885;28;20027;-74
2021/08/27 01:04:14;;;;;;;;;;;;;;;12.22;88.33;98992.59;5056534;28;20379;-74
2021/08/27 01:06:45;;;;;;;;;;;;;;;12.32;88.56;98989.88;5056491;28;19925;-74
2021/08/27 01:09:18;;;;;;;;;;;;;;;12.31;88.19;99002.69;5056542;28;19924;-74
2021/08/27 01:11:50;;;;;;;;;;;;;;;12.38;88.56;99004.28;5056426;28;19964;-74
2021/08/27 01:14:24;;;;;;;;;;;;;;;12.38;88.20;98999.16;5057008;28;19925;-74
2021/08/27 01:16:55;;;;;;;;;;;;;;;12.43;88.52;99002.47;5037336;28;19974;-74
2021/08/27 01:19:41;;;;;;;;;;;;;;;12.36;88.26;99001.72;5056144;28;19929;-75
2021/08/27 01:22:20;;;;;;;;;;;;;;;12.32;88.29;99001.81;5046928;28;19925;-74
2021/08/27 01:24:49;;;;;;;;;;;;;;;12.32;88.28;99007.78;5056274;28;20020;-74
2021/08/27 01:27:25;;;;;;;;;;;;;;;12.34;88.23;99010.28;5056279;28;19986;-74
2021/08/27 01:29:57;;;;;;;;;;;;;;;12.36;88.50;99021.34;5056122;28;19932;-75
2021/08/27 01:32:30;;;;;;;;;;;;;;;12.38;88.61;99019.63;5056030;28;19925;-74
2021/08/27 01:35:01;;;;;;;;;;;;;;;12.41;88.61;99020.38;5056058;28;19978;-75
2021/08/27 01:37:31;;;;;;;;;;;;;;;12.38;88.63;99024.75;5055979;28;19925;-75
2021/08/27 01:40:01;;;;;;;;;;;;;;;12.42;88.88;99031.47;5055922;28;20003;-74
2021/08/27 01:42:31;;;;;;;;;;;;;;;12.54;88.83;99029.53;5056000;28;19925;-75
2021/08/27 01:45:01;;;;;;;;;;;;;;;12.48;88.94;99031.34;5055780;28;19925;-75
2021/08/27 01:47:32;;;;;;;;;;;;;;;12.38;88.62;99029.84;5055745;28;19978;-75
2021/08/27 01:50:03;;;;;;;;;;;;;;;12.27;88.47;99036.88;5055776;28;19975;-75
2021/08/27 01:52:33;;;;;;;;;;;;;;;12.23;88.69;99042.91;5055576;28;19924;-75
2021/08/27 01:55:02;;;;;;;;;;;;;;;12.24;88.68;99049.72;5055608;28;19979;-74
2021/08/27 01:57:31;;;;;;;;;;;;;;;12.28;88.51;99048.81;5055624;28;19971;-74
2021/08/27 02:00:01;;;;;;;;;;;;;;;12.24;88.67;99047.19;5055891;28;19924;-74
2021/08/27 02:02:32;;;;;;;;;;;;;;;12.29;88.98;99047.91;5055583;28;19931;-74
2021/08/27 02:05:05;;;;;;;;;;;;;;;12.31;88.94;99048.75;5055464;28;19925;-74
2021/08/27 02:07:34;;;;;;;;;;;;;;;12.36;89.16;99042.66;5055436;28;20283;-74
2021/08/27 02:10:03;;;;;;;;;;;;;;;12.43;89.20;99054.47;5055349;28;19925;-74
2021/08/27 02:12:33;;;;;;;;;;;;;;;12.42;89.25;99057.91;5055365;28;19925;-74
2021/08/27 02:15:02;;;;;;;;;;;;;;;12.40;89.02;99053.69;5037409;28;19971;-74
2021/08/27 02:17:31;;;;;;;;;;;;;;;12.41;89.23;99055.38;5055230;28;19979;-74
2021/08/27 02:20:00;;;;;;;;;;;;;;;12.49;89.23;99063.75;5054984;28;19987;-74
2021/08/27 02:22:32;;;;;;;;;;;;;;;12.53;89.07;99058.56;5055070;28;20301;-74
2021/08/27 02:25:02;;;;;;;;;;;;;;;12.54;88.82;99046.59;5054978;28;19931;-75
2021/08/27 02:27:32;;;;;;;;;;;;;;;12.53;89.04;99045.75;5055046;28;19948;-75
2021/08/27 02:30:01;;;;;;;;;;;;;;;12.45;89.11;99046.78;5055007;28;19959;-74
2021/08/27 02:32:30;;;;;;;;;;;;;;;12.51;88.99;99042.38;5055132;28;19925;-75
2021/08/27 02:35:02;;;;;;;;;;;;;;;12.47;88.59;99039.91;5055007;28;19929;-75
2021/08/27 02:37:34;;;;;;;;;;;;;;;12.44;88.85;99039.97;5054886;28;20371;-75
2021/08/27 02:40:04;;;;;;;;;;;;;;;12.49;88.84;99033.06;5054825;28;19925;-75
2021/08/27 02:42:33;;;;;;;;;;;;;;;12.53;88.79;99029.53;5054751;28;19925;-74
2021/08/27 02:45:02;;;;;;;;;;;;;;;12.37;88.49;99023.03;5054843;28;19932;-75
2021/08/27 02:47:30;;;;;;;;;;;;;;;12.33;88.55;99029.09;5054602;28;20042;-74
2021/08/27 02:49:59;;;;;;;;;;;;;;;12.32;88.58;99019.72;5054529;28;20015;-74
2021/08/27 02:52:32;;;;;;;;;;;;;;;12.28;88.71;99023.22;5055014;28;20408;-75
2021/08/27 02:55:05;;;;;;;;;;;;;;;12.38;88.83;99001.72;5054669;28;19931;-75
2021/08/27 02:57:38;;;;;;;;;;;;;;;12.42;88.78;99005.88;5054465;28;19932;-74
2021/08/27 03:00:08;;;;;;;;;;;;;;;12.39;88.58;99018.72;5054761;28;20294;-75
2021/08/27 03:02:38;;;;;;;;;;;;;;;12.31;88.48;99015.50;5036901;28;20293;-75
2021/08/27 03:05:10;;;;;;;;;;;;;;;12.27;88.61;99021.50;5054311;28;20019;-75
2021/08/27 03:07:44;;;;;;;;;;;;;;;12.31;88.66;99020.59;5053983;28;20120;-75
2021/08/27 03:10:16;;;;;;;;;;;;;;;12.37;88.86;99010.25;5054324;28;19924;-75
2021/08/27 03:12:47;;;;;;;;;;;;;;;12.51;88.83;99006.56;5054197;28;19931;-75
2021/08/27 03:15:20;;;;;;;;;;;;;;;12.47;88.71;99010.06;5054220;28;19932;-75
2021/08/27 03:17:50;;;;;;;;;;;;;;;12.37;88.73;99002.56;5054180;28;20361;-75
2021/08/27 03:20:21;;;;;;;;;;;;;;;12.40;88.82;99002.53;5053824;28;20019;-75
2021/08/27 03:22:53;;;;;;;;;;;;;;;12.46;88.68;99002.38;5054113;28;19931;-75
2021/08/27 03:25:25;;;;;;;;;;;;;;;12.45;88.92;99010.97;5054046;28;20021;-75
2021/08/27 03:27:57;;;;;;;;;;;;;;;12.38;88.91;99017.88;5054032;28;19925;-75
2021/08/27 03:30:29;;;;;;;;;;;;;;;12.41;88.67;99019.53;5054013;28;19925;-75
2021/08/27 03:32:59;;;;;;;;;;;;;;;12.38;88.73;99030.69;5053902;28;19967;-75
2021/08/27 03:35:28;;;;;;;;;;;;;;;12.41;88.94;99032.34;5053978;28;20016;-75
2021/08/27 03:37:58;;;;;;;;;;;;;;;12.41;88.83;99040.00;5036080;28;19929;-75
2021/08/27 03:40:29;;;;;;;;;;;;;;;12.47;89.20;99032.25;5053108;28;19932;-75
2021/08/27 03:42:59;;;;;;;;;;;;;;;12.50;89.15;99029.63;5053870;28;20341;-75
2021/08/27 03:45:29;;;;;;;;;;;;;;;12.59;89.37;99032.00;5036058;28;20031;-77
2021/08/27 03:47:59;;;;;;;;;;;;;;;12.61;89.53;99020.00;5053907;28;20011;-77
2021/08/27 03:50:28;;;;;;;;;;;;;;;12.65;89.31;99029.31;5053730;28;20016;-77
2021/08/27 03:52:57;;;;;;;;;;;;;;;12.72;89.46;99025.75;5054017;28;19932;-77
2021/08/27 03:55:27;;;;;;;;;;;;;;;12.74;89.67;99029.97;5053847;28;19931;-77
2021/08/27 03:57:57;;;;;;;;;;;;;;;12.78;89.10;99035.88;5053745;28;19932;-77
2021/08/27 04:00:39;;;;;;;;;;;;;;;12.78;89.49;99035.88;5054070;28;19924;-77
2021/08/27 04:03:08;;;;;;;;;;;;;;;12.83;89.57;99036.66;5054005;28;19929;-77
2021/08/27 04:05:37;;;;;;;;;;;;;;;12.88;89.57;99039.97;5053965;28;19935;-77
2021/08/27 04:08:06;;;;;;;;;;;;;;;12.91;89.12;99039.88;5053636;28;20327;-77
2021/08/27 04:10:35;;;;;;;;;;;;;;;12.92;89.64;99044.13;5053604;28;19932;-78
2021/08/27 04:13:05;;;;;;;;;;;;;;;12.93;89.75;99045.84;5053602;28;19925;-78
2021/08/27 04:15:37;;;;;;;;;;;;;;;12.98;89.37;99056.81;5054490;28;20362;-78
2021/08/27 04:18:05;;;;;;;;;;;;;;;13.08;89.67;99060.91;5055472;28;19925;-78
2021/08/27 04:20:34;;;;;;;;;;;;;;;13.15;89.36;99072.72;5053315;28;19925;-78
2021/08/27 04:23:03;;;;;;;;;;;;;;;13.23;89.46;99072.56;5053544;28;19999;-77
2021/08/27 04:25:32;;;;;;;;;;;;;;;13.22;89.06;99074.25;5053536;28;19964;-77
2021/08/27 04:28:00;;;;;;;;;;;;;;;13.24;89.22;99080.22;5053514;28;19924;-77
2021/08/27 04:30:30;;;;;;;;;;;;;;;13.20;88.89;99082.84;5053670;28;20007;-77
2021/08/27 04:33:00;;;;;;;;;;;;;;;13.26;88.72;99078.47;5053420;28;19971;-77
2021/08/27 04:35:29;;;;;;;;;;;;;;;13.32;88.96;99083.44;5053435;28;19971;-77
2021/08/27 04:37:57;;;;;;;;;;;;;;;13.36;88.68;99092.75;5053663;28;19929;-77
2021/08/27 04:40:26;;;;;;;;;;;;;;;13.42;88.49;99097.75;5053268;28;19991;-77
2021/08/27 04:42:55;;;;;;;;;;;;;;;13.50;88.41;99104.44;5053360;28;19932;-77
2021/08/27 04:45:24;;;;;;;;;;;;;;;13.51;88.67;99112.09;5053316;28;20002;-77
2021/08/27 04:47:55;;;;;;;;;;;;;;;13.48;88.27;99116.44;5053247;28;20392;-77
2021/08/27 04:50:24;;;;;;;;;;;;;;;13.41;88.60;99115.75;5053846;28;20012;-77
2021/08/27 04:52:54;;;;;;;;;;;;;;;13.33;88.27;99115.91;5056706;28;19925;-77
2021/08/27 04:55:23;;;;;;;;;;;;;;;13.30;88.36;99110.84;5057168;28;19947;-77
2021/08/27 04:57:52;;;;;;;;;;;;;;;13.35;88.35;99121.00;5038848;28;20019;-77
2021/08/27 05:00:20;;;;;;;;;;;;;;;13.38;88.67;99114.09;5056694;28;19994;-77
2021/08/27 05:02:49;;;;;;;;;;;;;;;13.41;88.41;99111.44;5056779;28;19963;-77
2021/08/27 05:05:20;;;;;;;;;;;;;;;13.38;88.65;99106.41;5056896;28;20374;-77
2021/08/27 05:07:49;;;;;;;;;;;;;;;13.39;88.67;99112.34;5056612;28;19982;-77
2021/08/27 05:10:17;;;;;;;;;;;;;;;13.34;88.43;99115.00;5056505;28;20015;-77
2021/08/27 05:12:46;;;;;;;;;;;;;;;13.31;88.75;99109.97;5056606;28;19971;-77
2021/08/27 05:15:15;;;;;;;;;;;;;;;13.37;88.44;99107.25;5056403;28;19925;-77
2021/08/27 05:17:44;;;;;;;;;;;;;;;13.49;88.48;99113.00;5056342;28;19925;-80
2021/08/27 05:20:13;;;;;;;;;;;;;;;13.63;88.95;99111.00;5056078;28;19925;-77
2021/08/27 05:22:44;;;;;;;;;;;;;;;13.67;88.79;99103.19;5038352;28;20288;-75
2021/08/27 05:25:13;;;;;;;;;;;;;;;13.62;88.70;99099.03;5056343;28;20378;-75
2021/08/27 05:27:43;;;;;;;;;;;;;;;13.72;88.69;99100.53;5056164;28;20321;-75
2021/08/27 05:30:12;;;;;;;;;;;;;;;13.85;88.93;99097.63;5056418;28;19928;-75
2021/08/27 05:32:41;;;;;;;;;;;;;;;13.99;88.72;99099.88;5055985;28;20012;-75
2021/08/27 05:35:10;;;;;;;;;;;;;;;14.04;88.63;99090.34;5056287;28;20366;-75
2021/08/27 05:37:39;;;;;;;;;;;;;;;13.96;88.16;99094.84;5055990;28;20362;-75
2021/08/27 05:40:14;;;;;;;;;;;;;;;13.90;88.23;99102.66;5056257;28;19971;-75
2021/08/27 05:42:43;;;;;;;;;;;;;;;13.93;87.99;99100.03;5055962;28;19932;-75
2021/08/27 05:45:14;;;;;;;;;;;;;;;13.88;87.80;99105.28;5056365;28;20374;-74
2021/08/27 05:47:44;;;;;;;;;;;;;;;13.85;87.66;99107.06;5038073;28;19924;-74
2021/08/27 05:50:13;;;;;;;;;;;;;;;13.94;87.89;99109.44;5055751;28;19963;-74
2021/08/27 05:52:44;;;;;;;;;;;;;;;13.93;87.75;99100.03;5055793;28;20015;-75
2021/08/27 05:55:14;;;;;;;;;;;;;;;14.07;87.66;99105.66;5055505;28;19932;-75
2021/08/27 05:57:44;;;;;;;;;;;;;;;14.18;87.65;99100.28;5056034;28;19925;-75
2021/08/27 06:00:14;;;;;;;;;;;;;;;14.28;87.08;99102.56;5038062;28;19974;-75
2021/08/27 06:02:43;;;;;;;;;;;;;;;14.41;86.96;99092.88;5054928;28;19956;-75
2021/08/27 06:05:12;;;;;;;;;;;;;;;14.58;86.93;99094.16;5037983;28;20339;-74
2021/08/27 06:07:41;;;;;;;;;;;;;;;14.78;86.79;99085.88;5055420;28;19925;-74
2021/08/27 06:10:11;;;;;;;;;;;;;;;14.83;86.43;99090.91;5055351;28;19947;-74
2021/08/27 06:12:42;;;;;;;;;;;;;;;14.71;85.98;99086.94;5055358;28;19932;-74
2021/08/27 06:15:12;;;;;;;;;;;;;;;14.68;85.62;99087.03;5055282;28;20447;-74
2021/08/27 06:17:40;;;;;;;;;;;;;;;14.80;85.77;99091.84;5055090;28;19925;-74
2021/08/27 06:20:10;;;;;;;;;;;;;;;14.92;85.56;99086.38;5054965;28;20015;-73
2021/08/27 06:22:39;;;;;;;;;;;;;;;14.85;85.41;99094.28;5055228;28;19951;-73
2021/08/27 06:25:08;;;;;;;;;;;;;;;14.82;85.10;99094.34;5055059;28;20565;-73
2021/08/27 06:27:37;;;;;;;;;;;;;;;14.94;85.14;99094.03;5055022;28;20362;-73
2021/08/27 06:30:09;;;;;;;;;;;;;;;14.90;84.62;99095.00;5054943;28;19925;-74
2021/08/27 06:32:37;;;;;;;;;;;;;;;14.68;84.60;99102.44;5055013;28;19925;-74
2021/08/27 06:35:11;;;;;;;;;;;;;;;14.66;84.77;99105.03;5037039;28;19925;-74
2021/08/27 06:40:18;;;;;;;;;;;;;;;14.74;84.58;99108.25;5055642;28;20389;-73
2021/08/27 06:42:47;;;;;;;;;;;;;;;14.85;84.88;99109.69;5054421;28;19967;-73
2021/08/27 06:45:18;;;;;;;;;;;;;;;14.89;84.51;99107.00;5054686;28;20397;-73
2021/08/27 06:47:46;;;;;;;;;;;;;;;14.95;84.41;99104.25;5054527;28;19947;-74
2021/08/27 06:50:15;;;;;;;;;;;;;;;14.98;84.40;99111.03;5037206;28;19952;-74
2021/08/27 06:52:44;;;;;;;;;;;;;;;14.98;84.55;99109.31;5054424;28;19925;-74
2021/08/27 06:55:13;;;;;;;;;;;;;;;15.05;83.98;99108.25;5054364;28;19924;-74
2021/08/27 06:57:42;;;;;;;;;;;;;;;15.02;83.74;99107.50;5054481;28;20378;-74
2021/08/27 07:00:12;;;;;;;;;;;;;;;15.09;84.04;99117.56;5054311;28;20007;-75
2021/08/27 07:02:43;;;;;;;;;;;;;;;15.25;83.98;99120.56;5054586;28;19925;-74
2021/08/27 07:05:13;;;;;;;;;;;;;;;15.33;83.54;99121.19;5054211;28;19925;-74
2021/08/27 07:07:41;;;;;;;;;;;;;;;15.35;83.31;99117.69;5054318;28;19925;-74
2021/08/27 07:10:10;;;;;;;;;;;;;;;15.34;83.65;99130.56;5054161;28;19928;-73
2021/08/27 07:12:39;;;;;;;;;;;;;;;15.32;83.44;99127.19;5054157;28;19982;-74
2021/08/27 07:15:09;;;;;;;;;;;;;;;15.29;83.01;99127.28;5053956;28;19925;-75
2021/08/27 07:17:38;;;;;;;;;;;;;;;15.21;82.47;99134.38;5054047;28;20302;-74
2021/08/27 07:20:09;;;;;;;;;;;;;;;15.22;82.86;99125.78;5053876;28;19925;-74
2021/08/27 07:22:38;;;;;;;;;;;;;;;15.33;82.63;99128.91;5054114;28;19924;-73
2021/08/27 07:25:07;;;;;;;;;;;;;;;15.31;82.54;99135.78;5054039;28;19963;-73
2021/08/27 07:27:36;;;;;;;;;;;;;;;15.34;82.37;99136.56;5053828;28;20016;-74
2021/08/27 07:30:06;;;;;;;;;;;;;;;15.38;82.47;99135.56;5053880;28;19925;-75
2021/08/27 07:32:35;;;;;;;;;;;;;;;15.36;82.29;99139.06;5053823;28;20280;-77
2021/08/27 07:35:04;;;;;;;;;;;;;;;15.44;82.05;99147.41;5053886;28;19940;-76
2021/08/27 07:37:34;;;;;;;;;;;;;;;15.52;82.20;99145.50;5053886;28;19931;-76
2021/08/27 07:40:03;;;;;;;;;;;;;;;15.57;82.45;99150.53;5054300;28;19925;-76
2021/08/27 07:42:32;;;;;;;;;;;;;;;15.55;81.88;99155.69;5053859;28;19925;-76
2021/08/27 07:45:01;;;;;;;;;;;;;;;15.48;81.75;99154.19;5053667;28;20429;-76
2021/08/27 07:47:30;;;;;;;;;;;;;;;15.57;82.13;99159.09;5053651;28;19925;-76
2021/08/27 07:49:59;;;;;;;;;;;;;;;15.66;81.93;99153.66;5053840;28;19963;-77
2021/08/27 07:52:27;;;;;;;;;;;;;;;15.71;81.99;99145.81;5054039;28;20016;-77
2021/08/27 07:54:58;;;;;;;;;;;;;;;15.88;81.91;99157.25;5054285;28;20333;-77
2021/08/27 07:57:26;;;;;;;;;;;;;;;16.00;81.81;99151.72;5054549;28;19987;-77
2021/08/27 07:59:56;;;;;;;;;;;;;;;16.02;81.38;99156.84;5053844;28;19979;-77
2021/08/27 08:02:26;;;;;;;;;;;;;;;15.98;81.01;99156.09;5053820;28;19925;-76
2021/08/27 08:04:55;;;;;;;;;;;;;;;16.02;81.06;99152.53;5054111;28;19925;-77
2021/08/27 08:07:24;;;;;;;;;;;;;;;16.00;80.96;99150.91;5053902;28;19928;-76
2021/08/27 08:09:53;;;;;;;;;;;;;;;16.07;80.83;99153.25;5053900;28;19925;-77
2021/08/27 08:12:23;;;;;;;;;;;;;;;16.12;80.82;99147.94;5053920;28;19932;-77
2021/08/27 08:14:52;;;;;;;;;;;;;;;16.05;80.61;99157.56;5053892;28;19932;-77
2021/08/27 08:17:21;;;;;;;;;;;;;;;16.05;80.60;99161.91;5054174;28;19931;-77
2021/08/27 08:19:50;;;;;;;;;;;;;;;15.97;80.72;99149.28;5054179;28;20035;-76
2021/08/27 08:22:21;;;;;;;;;;;;;;;15.75;81.15;99153.38;5053618;28;19928;-77
2021/08/27 08:24:50;;;;;;;;;;;;;;;15.66;81.00;99157.97;5052917;28;19982;-77
2021/08/27 08:27:19;;;;;;;;;;;;;;;15.70;81.65;99157.81;5056868;28;19972;-76
2021/08/27 08:29:50;;;;;;;;;;;;;;;15.82;81.94;99160.03;5057242;28;19931;-76
2021/08/27 08:32:19;;;;;;;;;;;;;;;15.94;82.02;99164.81;5057218;28;19951;-77
2021/08/27 08:34:47;;;;;;;;;;;;;;;16.10;82.17;99166.00;5057487;28;20020;-77
2021/08/27 08:37:17;;;;;;;;;;;;;;;16.21;81.65;99164.84;5057049;28;19932;-78
2021/08/27 08:39:47;;;;;;;;;;;;;;;16.37;81.58;99155.72;5057063;28;19925;-77
2021/08/27 08:42:15;;;;;;;;;;;;;;;16.61;81.59;99168.66;5057207;28;19925;-77
2021/08/27 08:44:44;;;;;;;;;;;;;;;16.70;81.13;99162.34;5056882;28;19931;-77
2021/08/27 08:47:16;;;;;;;;;;;;;;;16.73;80.87;99168.25;5056747;28;20397;-77
2021/08/27 08:49:47;;;;;;;;;;;;;;;16.72;80.37;99163.16;5056793;28;19925;-77
2021/08/27 08:52:17;;;;;;;;;;;;;;;16.75;80.06;99170.78;5057117;28;19971;-77
2021/08/27 08:54:48;;;;;;;;;;;;;;;16.76;79.57;99169.91;5056801;28;19931;-77
2021/08/27 08:57:20;;;;;;;;;;;;;;;16.68;78.88;99164.16;5038823;28;19968;-76
2021/08/27 08:59:50;;;;;;;;;;;;;;;16.67;78.64;99172.78;5038719;28;19929;-76
2021/08/27 09:02:22;;;;;;;;;;;;;;;16.81;78.32;99169.72;5056897;28;20333;-76
2021/08/27 09:04:51;;;;;;;;;;;;;;;16.98;77.86;99170.84;5056482;28;20032;-76
2021/08/27 09:07:19;;;;;;;;;;;;;;;17.16;77.46;99177.94;5056559;28;20374;-76
2021/08/27 09:09:49;;;;;;;;;;;;;;;17.24;76.96;99175.94;5056455;28;19956;-74
2021/08/27 09:12:19;;;;;;;;;;;;;;;17.34;76.33;99172.13;5056487;28;19931;-74
2021/08/27 09:14:59;;;;;;;;;;;;;;;17.55;76.17;99174.84;5056392;28;19925;-74
2021/08/27 09:17:31;;;;;;;;;;;;;;;17.49;75.02;99169.88;5056312;28;20374;-74
2021/08/27 09:20:03;;;;;;;;;;;;;;;17.56;74.38;99171.38;5055945;28;19964;-74
2021/08/27 09:22:42;;;;;;;;;;;;;;;17.59;73.78;99171.25;5056294;28;19970;-74
2021/08/27 09:25:11;;;;;;;;;;;;;;;17.43;72.77;99174.38;5056649;28;19925;-74
2021/08/27 09:27:55;;;;;;;;;;;;;;;17.44;72.09;99180.38;5056118;28;20351;-74
2021/08/27 09:30:23;;;;;;;;;;;;;;;17.49;72.07;99175.03;5055926;28;19935;-74
2021/08/27 09:32:54;;;;;;;;;;;;;;;17.44;71.69;99180.38;5056335;28;20367;-73
2021/08/27 09:35:23;;;;;;;;;;;;;;;17.25;70.89;99171.63;5056107;28;20445;-73
2021/08/27 09:37:53;;;;;;;;;;;;;;;17.15;71.04;99178.84;5054795;28;19932;-74
2021/08/27 09:40:25;;;;;;;;;;;;;;;16.97;71.67;99179.47;5056054;28;19929;-74
2021/08/27 09:42:55;;;;;;;;;;;;;;;16.72;72.39;99186.38;5055944;28;19925;-76
2021/08/27 09:45:33;;;;;;;;;;;;;;;16.46;73.68;99179.44;5055785;28;19935;-77
2021/08/27 09:48:04;;;;;;;;;;;;;;;16.21;74.98;99188.00;5055831;28;19929;-77
2021/08/27 09:50:35;;;;;;;;;;;;;;;16.12;76.22;99189.16;5055960;28;19925;-77
2021/08/27 09:53:04;;;;;;;;;;;;;;;16.05;76.85;99187.66;5056362;28;20031;-75
2021/08/27 09:55:34;;;;;;;;;;;;;;;16.02;77.44;99191.16;5055721;28;19925;-75
2021/08/27 09:58:04;;;;;;;;;;;;;;;16.06;78.43;99195.31;5055861;28;19931;-75
2021/08/27 10:01:02;;;;;;;;;;;;;;;16.13;79.15;99189.97;5055280;28;20001;-76
2021/08/27 10:03:33;;;;;;;;;;;;;;;16.19;79.51;99200.09;5056015;28;20383;-76
2021/08/27 10:06:05;;;;;;;;;;;;;;;16.26;79.93;99192.13;5055472;28;19925;-76
2021/08/27 10:08:36;;;;;;;;;;;;;;;16.22;79.96;99192.28;5055375;28;20016;-76
2021/08/27 10:11:16;;;;;;;;;;;;;;;16.24;80.27;99193.06;5055311;28;19925;-76
2021/08/27 10:13:45;;;;;;;;;;;;;;;16.30;80.78;99192.84;5055352;28;19971;-76
2021/08/27 10:16:14;;;;;;;;;;;;;;;16.32;80.85;99197.06;5055184;28;19925;-76
2021/08/27 10:18:44;;;;;;;;;;;;;;;16.39;81.46;99195.13;5055229;28;19939;-76
2021/08/27 10:21:13;;;;;;;;;;;;;;;16.46;81.80;99197.47;5005203;28;20326;-75
2021/08/27 10:23:44;;;;;;;;;;;;;;;16.48;81.75;99202.59;5015403;28;19929;-75
2021/08/27 10:26:14;;;;;;;;;;;;;;;16.44;81.72;99196.69;5014018;28;20417;-76
2021/08/27 10:28:44;;;;;;;;;;;;;;;16.51;81.72;99202.47;5015398;28;19926;-76
2021/08/27 10:31:13;;;;;;;;;;;;;;;16.64;81.25;99198.66;5015351;28;20032;-75
2021/08/27 10:34:02;;;;;;;;;;;;;;;16.70;80.59;99198.44;5015177;28;19930;-76
2021/08/27 10:36:42;;;;;;;;;;;;;;;16.75;80.57;99196.53;5015241;28;20149;-76
2021/08/27 10:39:11;;;;;;;;;;;;;;;16.79;80.11;99198.16;5015327;28;20032;-77
2021/08/27 10:41:40;;;;;;;;;;;;;;;16.76;79.80;99205.97;5015516;28;19925;-77
2021/08/27 10:44:14;;;;;;;;;;;;;;;16.79;79.97;99205.88;5015339;28;20344;-77
2021/08/27 10:47:05;;;;;;;;;;;;;;;16.79;79.44;99199.88;5014958;28;20402;-76
2021/08/27 10:49:44;;;;;;;;;;;;;;;16.65;79.44;99202.94;5015140;28;20268;-77
2021/08/27 10:52:24;;;;;;;;;;;;;;;16.39;79.13;99197.72;5014975;28;19930;-76
2021/08/27 10:55:10;;;;;;;;;;;;;;;16.36;79.06;99197.84;5015078;28;19926;-77
2021/08/27 10:58:02;;;;;;;;;;;;;;;16.31;78.93;99202.28;5014563;28;20298;-76
2021/08/27 11:00:32;;;;;;;;;;;;;;;16.23;78.61;99197.38;5011544;28;19925;-75
2021/08/27 11:03:01;;;;;;;;;;;;;;;16.21;78.63;99203.47;5014828;28;20095;-74
2021/08/27 11:05:34;;;;;;;;;;;;;;;16.25;78.62;99205.03;5014761;28;19926;-74
2021/08/27 11:08:06;;;;;;;;;;;;;;;16.24;77.91;99201.63;5015241;28;20363;-75
2021/08/27 11:10:38;;;;;;;;;;;;;;;16.31;77.54;99199.72;5014684;28;19932;-74
2021/08/27 11:13:08;;;;;;;;;;;;;;;16.34;77.24;99202.19;5014475;28;19925;-74
2021/08/27 11:15:37;;;;;;;;;;;;;;;16.32;77.15;99198.81;5014807;28;19926;-74
2021/08/27 11:18:22;;;;;;;;;;;;;;;16.29;77.29;99202.31;5014409;28;20376;-74
2021/08/27 11:20:52;;;;;;;;;;;;;;;16.39;77.88;99200.28;5031779;28;19928;-75
2021/08/27 11:23:24;;;;;;;;;;;;;;;16.43;77.40;99199.31;5053846;28;19971;-76
2021/08/27 11:26:00;;;;;;;;;;;;;;;16.61;77.33;99207.31;5053940;28;19925;-76
2021/08/27 11:28:29;;;;;;;;;;;;;;;16.82;76.55;99192.88;5053936;28;19925;-76
2021/08/27 11:31:02;;;;;;;;;;;;;;;17.02;76.27;99190.47;5053726;28;20767;-76
2021/08/27 11:33:43;;;;;;;;;;;;;;;17.29;75.93;99194.66;5053820;28;19928;-75
2021/08/27 11:36:12;;;;;;;;;;;;;;;17.50;75.37;99189.59;5053650;28;19928;-76
2021/08/27 11:38:42;;;;;;;;;;;;;;;17.51;74.84;99192.16;5053815;28;20281;-75
2021/08/27 11:41:11;;;;;;;;;;;;;;;17.58;74.26;99193.66;5053771;28;19964;-75
2021/08/27 11:43:44;;;;;;;;;;;;;;;17.75;73.77;99193.88;5053616;28;19925;-75
2021/08/27 11:46:15;;;;;;;;;;;;;;;17.87;72.99;99195.97;5053971;28;20290;-74
2021/08/27 11:48:48;;;;;;;;;;;;;;;17.81;72.08;99197.94;5053834;28;20362;-73
2021/08/27 11:51:18;;;;;;;;;;;;;;;17.90;71.52;99192.44;5053764;28;20370;-73
2021/08/27 11:53:48;;;;;;;;;;;;;;;18.23;71.23;99195.44;5053778;28;20432;-74
2021/08/27 11:56:21;;;;;;;;;;;;;;;18.51;70.95;99191.72;5054048;28;19931;-74
2021/08/27 11:58:51;;;;;;;;;;;;;;;18.63;69.99;99190.38;5053538;28;20386;-73
2021/08/27 12:01:26;;;;;;;;;;;;;;;18.82;69.06;99187.88;5037932;28;19970;-73
2021/08/27 12:03:56;;;;;;;;;;;;;;;19.02;68.44;99185.28;5057820;28;19925;-74
2021/08/27 12:06:26;;;;;;;;;;;;;;;19.02;67.79;99183.56;5057841;28;19924;-74
2021/08/27 12:08:57;;;;;;;;;;;;;;;18.98;67.88;99178.56;5057745;28;20283;-74
2021/08/27 12:11:32;;;;;;;;;;;;;;;19.00;68.18;99187.97;5057456;28;19924;-74
2021/08/27 12:14:01;;;;;;;;;;;;;;;18.88;67.58;99179.88;5057914;28;19983;-74
2021/08/27 12:16:30;;;;;;;;;;;;;;;19.00;67.32;99179.34;5057524;28;19925;-73
2021/08/27 12:19:19;;;;;;;;;;;;;;;19.45;65.56;99179.94;5057413;28;19931;-74
2021/08/27 12:22:01;;;;;;;;;;;;;;;19.86;64.58;99181.50;5057301;28;20402;-74
2021/08/27 12:24:34;;;;;;;;;;;;;;;19.61;63.79;99183.53;5039639;28;20023;-73
2021/08/27 12:27:03;;;;;;;;;;;;;;;19.59;63.77;99180.16;5057376;28;19928;-74
2021/08/27 12:29:32;;;;;;;;;;;;;;;19.24;63.90;99180.88;5057321;28;20366;-73
2021/08/27 12:32:15;;;;;;;;;;;;;;;19.81;63.58;99180.03;5039452;28;19924;-73
2021/08/27 12:34:47;;;;;;;;;;;;;;;20.67;61.72;99178.47;5057169;28;19925;-72
2021/08/27 12:37:17;;;;;;;;;;;;;;;21.10;60.23;99178.00;5057100;28;19956;-73
2021/08/27 12:39:48;;;;;;;;;;;;;;;20.95;61.16;99173.56;5057353;28;19925;-73
2021/08/27 12:42:18;;;;;;;;;;;;;;;20.34;61.55;99180.13;5056956;28;19925;-73
2021/08/27 12:44:59;;;;;;;;;;;;;;;19.44;61.52;99174.81;5057254;28;19932;-72
2021/08/27 12:47:31;;;;;;;;;;;;;;;18.78;62.66;99165.63;5057084;28;20353;-72
2021/08/27 12:50:01;;;;;;;;;;;;;;;18.83;64.67;99171.47;5056881;28;19925;-73
2021/08/27 12:52:30;;;;;;;;;;;;;;;18.73;65.25;99177.03;5056863;28;19968;-73
2021/08/27 12:55:00;;;;;;;;;;;;;;;18.70;65.46;99177.16;5057092;28;19932;-73
2021/08/27 12:57:29;;;;;;;;;;;;;;;18.72;64.64;99170.16;5056967;28;19925;-73
2021/08/27 13:00:02;;;;;;;;;;;;;;;19.55;63.96;99170.88;5056680;28;19924;-73
2021/08/27 13:02:35;;;;;;;;;;;;;;;20.33;62.85;99174.09;5056652;28;20011;-73
2021/08/27 13:05:08;;;;;;;;;;;;;;;20.82;60.51;99167.34;5056488;28;19925;-73
2021/08/27 13:07:37;;;;;;;;;;;;;;;20.87;57.80;99165.34;5056543;28;19971;-72
2021/08/27 13:10:11;;;;;;;;;;;;;;;21.07;57.58;99166.94;5056637;28;19971;-74